createdAt,value
2019-05-29T00:00:22.987Z,12.19
2019-05-29T00:01:24.672Z,12.20
2019-05-29T00:02:25.345Z,12.21
2019-05-29T00:03:24.491Z,12.22
2019-05-29T00:04:26.404Z,12.24
2019-05-29T00:05:27.008Z,12.25
2019-05-29T00:06:27.769Z,12.26
2019-05-29T00:07:28.486Z,12.27
2019-05-29T00:08:28.153Z,12.28
2019-05-29T00:09:29.218Z,12.28
2019-05-29T00:10:29.807Z,12.28
2019-05-29T00:11:30.644Z,12.28
2019-05-29T00:12:30.017Z,12.28
2019-05-29T00:13:30.779Z,12.28
2019-05-29T00:14:31.800Z,12.28
2019-05-29T00:15:32.225Z,12.28
2019-05-29T00:16:32.570Z,12.27
2019-05-29T00:17:33.106Z,12.27
2019-05-29T00:18:33.807Z,12.27
2019-05-29T00:19:34.152Z,12.27
2019-05-29T00:20:34.617Z,12.28
2019-05-29T00:21:35.394Z,12.28
2019-05-29T00:22:35.882Z,12.28
2019-05-29T00:23:36.119Z,12.29
2019-05-29T00:24:36.614Z,12.29
2019-05-29T00:25:36.523Z,12.29
2019-05-29T00:26:36.678Z,12.30
2019-05-29T00:26:48.934Z,12.40
2019-05-29T00:27:48.158Z,12.38
2019-05-29T00:28:49.159Z,12.38
2019-05-29T00:29:49.535Z,12.38
2019-05-29T00:30:49.920Z,12.37
2019-05-29T00:31:50.978Z,12.37
2019-05-29T00:32:51.343Z,12.37
2019-05-29T00:33:53.163Z,12.37
2019-05-29T00:34:52.355Z,12.37
2019-05-29T00:35:53.030Z,12.36
2019-05-29T00:36:53.691Z,12.37
2019-05-29T00:37:53.953Z,12.36
2019-05-29T00:38:54.369Z,12.36
2019-05-29T00:39:54.811Z,12.36
2019-05-29T00:40:55.278Z,12.37
2019-05-29T00:41:55.766Z,12.37
2019-05-29T00:42:56.429Z,12.37
2019-05-29T00:43:57.205Z,12.37
2019-05-29T00:44:57.518Z,12.37
2019-05-29T00:45:57.848Z,12.37
2019-05-29T00:46:58.314Z,12.37
2019-05-29T00:47:59.168Z,12.38
2019-05-29T00:48:59.735Z,12.37
2019-05-29T00:50:00.058Z,12.37
2019-05-29T00:51:01.463Z,12.36
2019-05-29T00:52:02.219Z,12.36
2019-05-29T00:53:01.239Z,12.35
2019-05-29T00:54:01.356Z,12.34
2019-05-29T00:55:01.846Z,12.33
2019-05-29T00:56:03.146Z,12.32
2019-05-29T00:57:02.780Z,12.31
2019-05-29T00:58:03.134Z,12.30
2019-05-29T00:59:03.696Z,12.29
2019-05-29T01:00:04.706Z,12.29
2019-05-29T01:01:04.862Z,12.28
2019-05-29T01:02:05.487Z,12.27
2019-05-29T01:03:06.178Z,12.26
2019-05-29T01:04:06.650Z,12.25
2019-05-29T01:05:07.067Z,12.24
2019-05-29T01:06:07.717Z,12.23
2019-05-29T01:07:08.106Z,12.22
2019-05-29T01:08:08.550Z,12.21
2019-05-29T01:09:08.732Z,12.20
2019-05-29T01:10:10.606Z,12.19
2019-05-29T01:11:10.629Z,12.17
2019-05-29T01:12:10.842Z,12.16
2019-05-29T01:13:11.099Z,12.15
2019-05-29T01:14:11.266Z,12.13
2019-05-29T01:15:13.336Z,12.12
2019-05-29T01:16:12.055Z,12.10
2019-05-29T01:17:13.771Z,12.07
2019-05-29T01:18:13.782Z,12.05
2019-05-29T01:19:13.904Z,12.03
2019-05-29T01:20:14.086Z,12.01
2019-05-29T01:21:14.581Z,11.99
2019-05-29T01:22:16.171Z,11.97
2019-05-29T01:23:16.258Z,11.96
2019-05-29T01:24:16.293Z,11.95
2019-05-29T01:25:16.566Z,11.94
2019-05-29T01:26:16.838Z,11.93
2019-05-29T01:27:18.801Z,11.93
2019-05-29T01:28:17.290Z,11.92
2019-05-29T01:29:19.455Z,11.92
2019-05-29T01:30:19.355Z,11.92
2019-05-29T01:31:19.374Z,11.92
2019-05-29T01:32:19.530Z,11.92
2019-05-29T01:33:20.478Z,11.92
2019-05-29T01:34:19.859Z,11.92
2019-05-29T01:35:20.159Z,11.92
2019-05-29T01:36:20.363Z,11.92
2019-05-29T01:37:22.290Z,11.92
2019-05-29T01:38:21.578Z,11.92
2019-05-29T01:39:21.595Z,11.92
2019-05-29T01:40:27.448Z,11.92
2019-05-29T01:41:23.543Z,11.93
2019-05-29T01:42:23.495Z,11.93
2019-05-29T01:43:23.593Z,11.93
2019-05-29T01:44:23.914Z,11.93
2019-05-29T01:45:23.921Z,11.93
2019-05-29T01:46:25.424Z,11.94
2019-05-29T01:47:25.845Z,11.94
2019-05-29T01:48:26.253Z,11.95
2019-05-29T01:49:28.049Z,11.95
2019-05-29T01:50:26.213Z,11.95
2019-05-29T01:51:28.042Z,11.96
2019-05-29T01:52:28.070Z,11.96
2019-05-29T01:53:27.961Z,11.96
2019-05-29T01:54:28.054Z,11.96
2019-05-29T01:55:28.288Z,11.97
2019-05-29T01:56:29.672Z,11.97
2019-05-29T01:57:30.378Z,11.98
2019-05-29T01:58:30.690Z,11.98
2019-05-29T01:59:31.039Z,11.99
2019-05-29T02:00:31.480Z,11.99
2019-05-29T02:01:31.977Z,12.00
2019-05-29T02:02:32.313Z,12.00
2019-05-29T02:03:32.797Z,12.01
2019-05-29T02:04:33.262Z,12.01
2019-05-29T02:05:33.764Z,12.01
2019-05-29T02:06:34.227Z,12.01
2019-05-29T02:06:42.747Z,12.00
2019-05-29T02:07:44.159Z,11.97
2019-05-29T02:08:44.519Z,11.97
2019-05-29T02:09:44.912Z,11.98
2019-05-29T02:10:45.387Z,11.98
2019-05-29T02:11:45.795Z,11.99
2019-05-29T02:12:46.391Z,11.99
2019-05-29T02:13:46.736Z,12.00
2019-05-29T02:14:47.179Z,12.00
2019-05-29T02:15:47.668Z,12.00
2019-05-29T02:16:48.070Z,12.00
2019-05-29T02:17:48.521Z,12.00
2019-05-29T02:18:48.787Z,12.00
2019-05-29T02:19:49.177Z,11.99
2019-05-29T02:20:49.537Z,11.99
2019-05-29T02:21:49.930Z,11.98
2019-05-29T02:22:50.276Z,11.98
2019-05-29T02:23:50.638Z,11.98
2019-05-29T02:24:51.004Z,11.97
2019-05-29T02:25:51.526Z,11.96
2019-05-29T02:26:51.866Z,11.95
2019-05-29T02:27:52.216Z,11.95
2019-05-29T02:28:52.512Z,11.94
2019-05-29T02:29:52.987Z,11.94
2019-05-29T02:30:53.415Z,11.93
2019-05-29T02:31:53.765Z,11.93
2019-05-29T02:32:54.159Z,11.92
2019-05-29T02:33:54.523Z,11.91
2019-05-29T02:34:54.903Z,11.89
2019-05-29T02:35:55.285Z,11.88
2019-05-29T02:36:55.566Z,11.87
2019-05-29T02:37:56.114Z,11.85
2019-05-29T02:38:56.451Z,11.84
2019-05-29T02:39:57.254Z,11.84
2019-05-29T02:40:57.683Z,11.83
2019-05-29T02:41:58.214Z,11.82
2019-05-29T02:42:58.591Z,11.81
2019-05-29T02:43:59.019Z,11.80
2019-05-29T02:44:59.502Z,11.79
2019-05-29T02:45:59.854Z,11.79
2019-05-29T02:47:00.453Z,11.78
2019-05-29T02:48:00.814Z,11.77
2019-05-29T02:49:01.257Z,11.77
2019-05-29T02:50:01.646Z,11.76
2019-05-29T02:50:10.199Z,11.68
2019-05-29T02:51:12.251Z,11.65
2019-05-29T02:52:10.934Z,11.65
2019-05-29T02:53:12.390Z,11.65
2019-05-29T02:54:12.843Z,11.66
2019-05-29T02:55:13.255Z,11.66
2019-05-29T02:56:13.641Z,11.66
2019-05-29T02:57:13.982Z,11.67
2019-05-29T02:58:14.304Z,11.67
2019-05-29T02:59:14.810Z,11.67
2019-05-29T03:00:15.225Z,11.67
2019-05-29T03:01:15.795Z,11.67
2019-05-29T03:02:16.621Z,11.67
2019-05-29T03:03:17.353Z,11.66
2019-05-29T03:04:17.738Z,11.65
2019-05-29T03:05:18.149Z,11.65
2019-05-29T03:06:18.926Z,11.64
2019-05-29T03:07:19.688Z,11.63
2019-05-29T03:08:20.043Z,11.62
2019-05-29T03:09:22.563Z,11.60
2019-05-29T03:10:20.066Z,11.59
2019-05-29T03:11:23.063Z,11.58
2019-05-29T03:12:20.843Z,11.57
2019-05-29T03:13:23.119Z,11.56
2019-05-29T03:14:22.919Z,11.55
2019-05-29T03:15:23.559Z,11.54
2019-05-29T03:16:23.912Z,11.54
2019-05-29T03:17:23.678Z,11.53
2019-05-29T03:18:24.025Z,11.52
2019-05-29T03:19:24.028Z,11.52
2019-05-29T03:20:25.959Z,11.51
2019-05-29T03:21:26.060Z,11.51
2019-05-29T03:22:26.248Z,11.51
2019-05-29T03:23:28.935Z,11.50
2019-05-29T03:24:27.084Z,11.50
2019-05-29T03:25:28.289Z,11.50
2019-05-29T03:26:30.313Z,11.50
2019-05-29T03:27:27.920Z,11.50
2019-05-29T03:28:32.156Z,11.50
2019-05-29T03:29:29.989Z,11.49
2019-05-29T03:30:31.651Z,11.49
2019-05-29T03:31:36.862Z,11.48
2019-05-29T03:32:32.475Z,11.48
2019-05-29T03:33:39.256Z,11.47
2019-05-29T03:34:37.309Z,11.46
2019-05-29T03:35:39.858Z,11.45
2019-05-29T03:36:41.557Z,11.45
2019-05-29T03:37:32.550Z,11.44
2019-05-29T03:38:34.621Z,11.44
2019-05-29T03:39:34.592Z,11.43
2019-05-29T03:40:35.113Z,11.42
2019-05-29T03:41:34.898Z,11.41
2019-05-29T03:42:34.539Z,11.40
2019-05-29T03:43:35.963Z,11.39
2019-05-29T03:44:35.618Z,11.38
2019-05-29T03:45:37.861Z,11.38
2019-05-29T03:46:42.780Z,11.37
2019-05-29T03:47:37.206Z,11.36
2019-05-29T03:48:38.555Z,11.36
2019-05-29T03:49:37.625Z,11.35
2019-05-29T03:50:38.973Z,11.35
2019-05-29T03:51:39.514Z,11.35
2019-05-29T03:52:40.011Z,11.34
2019-05-29T03:53:40.372Z,11.33
2019-05-29T03:54:40.975Z,11.32
2019-05-29T03:55:41.520Z,11.31
2019-05-29T03:56:42.004Z,11.30
2019-05-29T03:57:42.391Z,11.29
2019-05-29T03:58:42.843Z,11.28
2019-05-29T03:59:43.361Z,11.27
2019-05-29T04:00:46.653Z,11.27
2019-05-29T04:01:43.531Z,11.26
2019-05-29T04:02:45.326Z,11.25
2019-05-29T04:03:45.879Z,11.24
2019-05-29T04:03:55.431Z,11.04
2019-05-29T04:04:57.002Z,11.03
2019-05-29T04:05:57.954Z,11.03
2019-05-29T04:06:58.532Z,11.03
2019-05-29T04:07:59.121Z,11.03
2019-05-29T04:08:59.713Z,11.04
2019-05-29T04:10:00.169Z,11.05
2019-05-29T04:11:00.919Z,11.06
2019-05-29T04:12:01.350Z,11.07
2019-05-29T04:13:01.800Z,11.09
2019-05-29T04:14:01.210Z,11.10
2019-05-29T04:15:02.830Z,11.12
2019-05-29T04:16:03.226Z,11.13
2019-05-29T04:17:03.848Z,11.14
2019-05-29T04:18:04.234Z,11.15
2019-05-29T04:19:04.627Z,11.17
2019-05-29T04:20:05.017Z,11.18
2019-05-29T04:21:05.834Z,11.19
2019-05-29T04:22:06.320Z,11.20
2019-05-29T04:23:06.717Z,11.21
2019-05-29T04:24:07.331Z,11.22
2019-05-29T04:25:07.925Z,11.23
2019-05-29T04:26:08.613Z,11.25
2019-05-29T04:27:08.912Z,11.26
2019-05-29T04:28:09.323Z,11.27
2019-05-29T04:29:09.742Z,11.29
2019-05-29T04:30:10.171Z,11.30
2019-05-29T04:31:10.715Z,11.32
2019-05-29T04:32:11.085Z,11.33
2019-05-29T04:33:11.539Z,11.34
2019-05-29T04:34:11.976Z,11.36
2019-05-29T04:35:12.447Z,11.37
2019-05-29T04:36:13.064Z,11.39
2019-05-29T04:37:13.495Z,11.40
2019-05-29T04:38:13.952Z,11.42
2019-05-29T04:39:14.546Z,11.43
2019-05-29T04:40:14.962Z,11.45
2019-05-29T04:41:15.546Z,11.46
2019-05-29T04:42:15.898Z,11.48
2019-05-29T04:43:16.298Z,11.49
2019-05-29T04:44:16.745Z,11.50
2019-05-29T04:45:17.464Z,11.52
2019-05-29T04:46:17.908Z,11.53
2019-05-29T04:47:18.300Z,11.55
2019-05-29T04:47:31.022Z,11.83
2019-05-29T04:48:31.558Z,11.81
2019-05-29T04:49:31.964Z,11.81
2019-05-29T04:50:33.377Z,11.82
2019-05-29T04:51:33.096Z,11.82
2019-05-29T04:52:33.869Z,11.83
2019-05-29T04:53:33.695Z,11.83
2019-05-29T04:54:35.271Z,11.84
2019-05-29T04:55:34.824Z,11.84
2019-05-29T04:56:34.887Z,11.85
2019-05-29T04:57:35.129Z,11.85
2019-05-29T04:58:37.031Z,11.86
2019-05-29T04:59:37.119Z,11.88
2019-05-29T05:00:37.247Z,11.90
2019-05-29T05:01:37.118Z,11.92
2019-05-29T05:02:37.320Z,11.94
2019-05-29T05:03:37.714Z,11.96
2019-05-29T05:04:39.455Z,12.00
2019-05-29T05:05:39.545Z,12.04
2019-05-29T05:06:39.491Z,12.09
2019-05-29T05:07:39.731Z,12.16
2019-05-29T05:08:40.282Z,12.25
2019-05-29T05:09:40.620Z,12.34
2019-05-29T05:10:42.064Z,12.45
2019-05-29T05:11:42.483Z,12.57
2019-05-29T05:12:43.061Z,12.72
2019-05-29T05:13:42.469Z,12.88
2019-05-29T05:14:43.948Z,13.05
2019-05-29T05:15:44.287Z,13.23
2019-05-29T05:16:44.857Z,13.42
2019-05-29T05:17:44.284Z,13.63
2019-05-29T05:18:45.850Z,13.84
2019-05-29T05:19:46.279Z,14.05
2019-05-29T05:20:46.684Z,14.24
2019-05-29T05:21:47.132Z,14.44
2019-05-29T05:22:48.573Z,14.66
2019-05-29T05:23:48.337Z,14.87
2019-05-29T05:24:48.742Z,15.10
2019-05-29T05:25:49.284Z,15.32
2019-05-29T05:26:49.897Z,15.54
2019-05-29T05:27:49.952Z,15.76
2019-05-29T05:28:50.530Z,15.98
2019-05-29T05:29:49.823Z,16.21
2019-05-29T05:30:51.240Z,16.42
2019-05-29T05:31:51.751Z,16.63
2019-05-29T05:32:52.141Z,16.84
2019-05-29T05:33:52.597Z,17.05
2019-05-29T05:34:53.105Z,17.27
2019-05-29T05:35:53.434Z,17.49
2019-05-29T05:36:54.145Z,17.72
2019-05-29T05:37:54.523Z,17.94
2019-05-29T05:38:55.106Z,18.15
2019-05-29T05:39:55.480Z,18.36
2019-05-29T05:40:55.809Z,18.57
2019-05-29T05:41:56.238Z,18.78
2019-05-29T05:42:56.644Z,18.99
2019-05-29T05:43:57.033Z,19.17
2019-05-29T05:44:57.443Z,19.32
2019-05-29T05:45:58.093Z,19.46
2019-05-29T05:46:59.023Z,19.58
2019-05-29T05:47:59.697Z,19.70
2019-05-29T05:49:00.391Z,19.80
2019-05-29T05:50:00.856Z,19.89
2019-05-29T05:50:09.401Z,21.22
2019-05-29T05:51:10.747Z,21.21
2019-05-29T05:52:11.541Z,21.24
2019-05-29T05:53:12.245Z,21.26
2019-05-29T05:54:12.693Z,21.26
2019-05-29T05:55:13.462Z,21.27
2019-05-29T05:56:13.941Z,21.31
2019-05-29T05:57:14.514Z,21.35
2019-05-29T05:58:14.895Z,21.42
2019-05-29T05:59:15.373Z,21.49
2019-05-29T06:00:15.710Z,21.59
2019-05-29T06:01:16.206Z,21.70
2019-05-29T06:02:16.711Z,21.81
2019-05-29T06:03:17.142Z,21.92
2019-05-29T06:04:17.721Z,22.01
2019-05-29T06:05:18.153Z,22.11
2019-05-29T06:06:18.718Z,22.23
2019-05-29T06:07:19.657Z,22.36
2019-05-29T06:08:20.409Z,22.48
2019-05-29T06:09:20.893Z,22.60
2019-05-29T06:10:20.460Z,22.72
2019-05-29T06:11:21.640Z,22.82
2019-05-29T06:12:22.137Z,22.95
2019-05-29T06:13:22.595Z,23.05
2019-05-29T06:14:23.497Z,23.17
2019-05-29T06:15:24.006Z,23.30
2019-05-29T06:16:24.495Z,23.40
2019-05-29T06:17:23.463Z,23.49
2019-05-29T06:18:25.072Z,23.61
2019-05-29T06:19:25.822Z,23.75
2019-05-29T06:20:25.314Z,23.89
2019-05-29T06:21:27.218Z,24.02
2019-05-29T06:22:27.847Z,24.10
2019-05-29T06:23:28.416Z,24.20
2019-05-29T06:24:28.873Z,24.28
2019-05-29T06:25:29.303Z,24.36
2019-05-29T06:26:29.922Z,24.40
2019-05-29T06:27:30.589Z,24.43
2019-05-29T06:28:31.473Z,24.49
2019-05-29T06:29:33.438Z,24.53
2019-05-29T06:30:31.501Z,24.58
2019-05-29T06:31:33.310Z,24.63
2019-05-29T06:32:33.477Z,24.69
2019-05-29T06:33:33.411Z,24.78
2019-05-29T06:34:33.601Z,24.83
2019-05-29T06:35:35.852Z,24.88
2019-05-29T06:36:35.494Z,24.93
2019-05-29T06:37:35.577Z,24.99
2019-05-29T06:38:35.655Z,25.04
2019-05-29T06:39:35.810Z,25.06
2019-05-29T06:40:38.288Z,25.08
2019-05-29T06:41:37.774Z,25.11
2019-05-29T06:42:37.851Z,25.17
2019-05-29T06:43:37.908Z,25.20
2019-05-29T06:44:39.844Z,25.24
2019-05-29T06:45:39.843Z,25.29
2019-05-29T06:46:40.427Z,25.33
2019-05-29T06:47:40.828Z,25.37
2019-05-29T06:48:52.670Z,25.39
2019-05-29T06:48:59.356Z,26.07
2019-05-29T06:49:49.347Z,26.07
2019-05-29T06:50:51.529Z,26.06
2019-05-29T06:51:50.131Z,26.07
2019-05-29T06:52:51.652Z,26.05
2019-05-29T06:53:52.119Z,26.07
2019-05-29T06:54:52.732Z,26.12
2019-05-29T06:55:55.118Z,26.16
2019-05-29T06:56:52.896Z,26.18
2019-05-29T06:57:54.604Z,26.21
2019-05-29T06:58:54.941Z,26.26
2019-05-29T06:59:55.307Z,26.34
2019-05-29T07:00:55.905Z,26.43
2019-05-29T07:01:56.261Z,26.50
2019-05-29T07:02:56.657Z,26.58
2019-05-29T07:04:11.289Z,26.63
2019-05-29T07:04:56.301Z,26.65
2019-05-29T07:05:57.943Z,26.66
2019-05-29T07:06:58.407Z,26.66
2019-05-29T07:07:58.528Z,26.64
2019-05-29T07:08:57.633Z,26.63
2019-05-29T07:09:59.062Z,26.63
2019-05-29T07:10:59.497Z,26.61
2019-05-29T07:11:59.923Z,26.59
2019-05-29T07:13:00.340Z,26.57
2019-05-29T07:14:00.937Z,26.54
2019-05-29T07:15:01.569Z,26.49
2019-05-29T07:16:01.935Z,26.42
2019-05-29T07:17:02.330Z,26.34
2019-05-29T07:18:03.110Z,26.27
2019-05-29T07:19:26.491Z,26.18
2019-05-29T07:20:04.226Z,26.09
2019-05-29T07:21:03.796Z,25.99
2019-05-29T07:22:05.165Z,25.91
2019-05-29T07:23:05.547Z,25.80
2019-05-29T07:24:05.962Z,25.70
2019-05-29T07:25:06.508Z,25.56
2019-05-29T07:26:07.410Z,25.43
2019-05-29T07:27:12.717Z,25.31
2019-05-29T07:28:07.610Z,25.20
2019-05-29T07:29:09.135Z,25.09
2019-05-29T07:30:09.617Z,24.96
2019-05-29T07:31:10.134Z,24.82
2019-05-29T07:32:10.597Z,24.68
2019-05-29T07:33:11.098Z,24.52
2019-05-29T07:34:10.547Z,24.38
2019-05-29T07:35:12.063Z,24.25
2019-05-29T07:36:12.420Z,24.14
2019-05-29T07:37:13.142Z,24.02
2019-05-29T07:38:12.356Z,23.89
2019-05-29T07:39:12.607Z,23.77
2019-05-29T07:40:13.953Z,23.65
2019-05-29T07:40:23.120Z,21.94
2019-05-29T07:41:24.563Z,21.87
2019-05-29T07:42:25.075Z,21.86
2019-05-29T07:43:24.740Z,21.86
2019-05-29T07:44:26.328Z,21.84
2019-05-29T07:45:26.758Z,21.82
2019-05-29T07:46:27.215Z,21.79
2019-05-29T07:47:27.877Z,21.75
2019-05-29T07:48:28.459Z,21.67
2019-05-29T07:49:38.490Z,21.59
2019-05-29T07:50:28.204Z,21.47
2019-05-29T07:51:29.743Z,21.28
2019-05-29T07:52:30.418Z,21.12
2019-05-29T07:53:29.956Z,20.96
2019-05-29T07:54:31.550Z,20.81
2019-05-29T07:55:31.998Z,20.67
2019-05-29T07:56:32.356Z,20.54
2019-05-29T07:57:32.940Z,20.42
2019-05-29T07:58:33.291Z,20.32
2019-05-29T07:59:34.048Z,20.21
2019-05-29T08:00:36.156Z,20.12
2019-05-29T08:01:33.964Z,20.05
2019-05-29T08:02:35.403Z,19.96
2019-05-29T08:03:35.843Z,19.87
2019-05-29T08:04:36.258Z,19.79
2019-05-29T08:05:36.693Z,19.73
2019-05-29T08:06:37.182Z,19.68
2019-05-29T08:07:39.272Z,19.64
2019-05-29T08:08:37.617Z,19.60
2019-05-29T08:09:39.569Z,19.56
2019-05-29T08:10:41.674Z,19.51
2019-05-29T08:11:39.840Z,19.46
2019-05-29T08:12:46.377Z,19.42
2019-05-29T08:13:41.495Z,19.39
2019-05-29T08:14:41.832Z,19.37
2019-05-29T08:15:55.038Z,19.36
2019-05-29T08:16:42.196Z,19.36
2019-05-29T08:17:44.122Z,19.36
2019-05-29T08:18:46.227Z,19.35
2019-05-29T08:19:59.228Z,19.35
2019-05-29T08:20:44.365Z,19.34
2019-05-29T08:21:46.503Z,19.32
2019-05-29T08:22:46.415Z,19.33
2019-05-29T08:23:46.424Z,19.34
2019-05-29T08:24:47.452Z,19.35
2019-05-29T08:25:47.651Z,19.35
2019-05-29T08:26:47.046Z,19.35
2019-05-29T08:27:48.924Z,19.34
2019-05-29T08:28:48.955Z,19.34
2019-05-29T08:29:48.939Z,19.34
2019-05-29T08:30:55.763Z,19.33
2019-05-29T08:31:51.015Z,19.31
2019-05-29T08:32:51.261Z,19.29
2019-05-29T08:33:51.415Z,19.29
2019-05-29T08:34:51.534Z,19.28
2019-05-29T08:35:59.814Z,19.29
2019-05-29T08:37:05.990Z,19.26
2019-05-29T08:37:53.596Z,19.25
2019-05-29T08:38:54.948Z,19.23
2019-05-29T08:39:55.291Z,19.21
2019-05-29T08:40:55.633Z,19.19
2019-05-29T08:42:21.348Z,19.16
2019-05-29T08:42:55.339Z,19.15
2019-05-29T08:43:56.706Z,19.14
2019-05-29T08:44:57.115Z,19.13
2019-05-29T08:45:05.770Z,19.19
2019-05-29T08:46:07.238Z,19.19
2019-05-29T08:47:10.472Z,19.19
2019-05-29T08:48:06.902Z,19.20
2019-05-29T08:49:08.341Z,19.20
2019-05-29T08:50:18.160Z,19.21
2019-05-29T08:51:08.336Z,19.23
2019-05-29T08:52:12.287Z,19.25
2019-05-29T08:53:09.030Z,19.27
2019-05-29T08:54:23.564Z,19.31
2019-05-29T08:55:09.984Z,19.34
2019-05-29T08:56:11.559Z,19.35
2019-05-29T08:57:11.930Z,19.37
2019-05-29T08:58:12.243Z,19.39
2019-05-29T08:59:12.604Z,19.41
2019-05-29T09:00:13.017Z,19.43
2019-05-29T09:01:12.000Z,19.46
2019-05-29T09:02:13.588Z,19.48
2019-05-29T09:03:14.123Z,19.51
2019-05-29T09:04:14.696Z,19.53
2019-05-29T09:05:15.304Z,19.56
2019-05-29T09:06:15.825Z,19.56
2019-05-29T09:07:16.214Z,19.57
2019-05-29T09:08:16.591Z,19.58
2019-05-29T09:09:17.338Z,19.58
2019-05-29T09:10:16.812Z,19.59
2019-05-29T09:11:18.456Z,19.60
2019-05-29T09:12:19.301Z,19.61
2019-05-29T09:13:18.638Z,19.63
2019-05-29T09:14:20.411Z,19.63
2019-05-29T09:15:21.860Z,19.64
2019-05-29T09:16:20.509Z,19.65
2019-05-29T09:17:22.408Z,19.66
2019-05-29T09:18:25.592Z,19.67
2019-05-29T09:19:22.844Z,19.68
2019-05-29T09:20:43.233Z,19.69
2019-05-29T09:21:26.380Z,19.69
2019-05-29T09:22:23.388Z,19.70
2019-05-29T09:23:24.551Z,19.69
2019-05-29T09:24:25.067Z,19.68
2019-05-29T09:25:24.426Z,19.66
2019-05-29T09:26:26.132Z,19.65
2019-05-29T09:27:28.301Z,19.64
2019-05-29T09:28:26.536Z,19.63
2019-05-29T09:29:27.944Z,19.62
2019-05-29T09:30:27.452Z,19.61
2019-05-29T09:31:29.190Z,19.62
2019-05-29T09:32:48.446Z,19.63
2019-05-29T09:33:29.775Z,19.65
2019-05-29T09:34:31.688Z,19.66
2019-05-29T09:35:32.155Z,19.67
2019-05-29T09:36:32.858Z,19.68
2019-05-29T09:37:33.693Z,19.70
2019-05-29T09:38:33.139Z,19.73
2019-05-29T09:39:34.666Z,19.75
2019-05-29T09:40:35.088Z,19.76
2019-05-29T09:41:35.775Z,19.77
2019-05-29T09:42:36.318Z,19.79
2019-05-29T09:42:44.892Z,20.32
2019-05-29T09:43:58.258Z,20.32
2019-05-29T09:44:45.712Z,20.33
2019-05-29T09:45:47.233Z,20.34
2019-05-29T09:46:47.767Z,20.35
2019-05-29T09:47:48.292Z,20.35
2019-05-29T09:48:50.237Z,20.36
2019-05-29T09:49:48.279Z,20.37
2019-05-29T09:50:50.831Z,20.38
2019-05-29T09:51:49.336Z,20.39
2019-05-29T09:52:50.818Z,20.39
2019-05-29T09:53:52.472Z,20.40
2019-05-29T09:54:52.975Z,20.42
2019-05-29T09:55:52.276Z,20.45
2019-05-29T09:56:52.247Z,20.47
2019-05-29T09:57:54.155Z,20.50
2019-05-29T09:58:55.289Z,20.52
2019-05-29T09:59:54.451Z,20.53
2019-05-29T10:01:15.923Z,20.55
2019-05-29T10:01:56.207Z,20.56
2019-05-29T10:02:55.626Z,20.56
2019-05-29T10:03:57.166Z,20.54
2019-05-29T10:04:56.494Z,20.52
2019-05-29T10:05:55.957Z,20.44
2019-05-29T10:06:57.496Z,20.34
2019-05-29T10:07:58.066Z,20.26
2019-05-29T10:08:58.047Z,20.19
2019-05-29T10:09:59.288Z,20.14
2019-05-29T10:11:05.902Z,20.11
2019-05-29T10:12:03.454Z,20.08
2019-05-29T10:13:00.028Z,20.05
2019-05-29T10:14:00.607Z,20.03
2019-05-29T10:15:02.246Z,20.01
2019-05-29T10:16:02.902Z,20.00
2019-05-29T10:17:08.168Z,20.00
2019-05-29T10:18:07.407Z,20.01
2019-05-29T10:19:04.979Z,20.02
2019-05-29T10:20:05.093Z,20.03
2019-05-29T10:21:05.212Z,20.04
2019-05-29T10:22:06.759Z,20.05
2019-05-29T10:23:07.429Z,20.07
2019-05-29T10:24:07.887Z,20.08
2019-05-29T10:25:08.349Z,20.09
2019-05-29T10:26:09.237Z,20.10
2019-05-29T10:27:12.931Z,20.10
2019-05-29T10:29:38.677Z,20.30
2019-05-29T10:30:42.065Z,20.30
2019-05-29T10:31:02.109Z,20.30
2019-05-29T10:31:39.473Z,20.31
2019-05-29T10:32:42.553Z,20.32
2019-05-29T10:33:40.245Z,20.32
2019-05-29T10:34:42.231Z,20.33
2019-05-29T10:35:42.466Z,20.35
2019-05-29T10:36:42.303Z,20.35
2019-05-29T10:37:42.753Z,20.36
2019-05-29T10:39:13.500Z,20.45
2019-05-29T10:40:15.039Z,20.45
2019-05-29T10:41:15.634Z,20.44
2019-05-29T10:43:33.838Z,20.53
2019-05-29T10:44:23.823Z,20.53
2019-05-29T10:45:25.206Z,20.51
2019-05-29T10:46:25.415Z,20.50
2019-05-29T10:47:25.935Z,20.48
2019-05-29T10:48:26.367Z,20.48
2019-05-29T10:49:26.849Z,20.47
2019-05-29T10:50:26.256Z,20.46
2019-05-29T10:51:27.763Z,20.46
2019-05-29T10:52:28.210Z,20.43
2019-05-29T10:53:27.941Z,20.41
2019-05-29T10:54:29.502Z,20.40
2019-05-29T10:55:29.953Z,20.39
2019-05-29T10:56:30.684Z,20.38
2019-05-29T10:57:31.365Z,20.37
2019-05-29T10:58:48.075Z,20.36
2019-05-29T10:59:31.956Z,20.34
2019-05-29T11:00:33.365Z,20.34
2019-05-29T11:01:33.886Z,20.35
2019-05-29T11:02:34.328Z,20.36
2019-05-29T11:03:34.795Z,20.38
2019-05-29T11:04:35.249Z,20.39
2019-05-29T11:05:35.889Z,20.39
2019-05-29T11:06:40.258Z,20.39
2019-05-29T11:07:35.752Z,20.40
2019-05-29T11:08:37.191Z,20.42
2019-05-29T11:09:44.475Z,20.43
2019-05-29T11:10:37.036Z,20.43
2019-05-29T11:11:38.504Z,20.43
2019-05-29T11:12:39.879Z,20.43
2019-05-29T11:13:38.561Z,20.43
2019-05-29T11:14:39.984Z,20.42
2019-05-29T11:15:40.720Z,20.41
2019-05-29T11:16:41.412Z,20.40
2019-05-29T11:17:41.985Z,20.40
2019-05-29T11:18:41.521Z,20.40
2019-05-29T11:19:43.338Z,20.40
2019-05-29T11:20:43.750Z,20.41
2019-05-29T11:21:44.095Z,20.41
2019-05-29T11:22:44.533Z,20.42
2019-05-29T11:23:44.888Z,20.43
2019-05-29T11:24:45.400Z,20.44
2019-05-29T11:25:45.870Z,20.45
2019-05-29T11:26:45.140Z,20.47
2019-05-29T11:27:46.393Z,20.49
2019-05-29T11:28:48.257Z,20.51
2019-05-29T11:29:46.485Z,20.53
2019-05-29T11:30:48.661Z,20.55
2019-05-29T11:31:48.463Z,20.58
2019-05-29T11:32:50.235Z,20.60
2019-05-29T11:33:48.846Z,20.61
2019-05-29T11:34:49.052Z,20.62
2019-05-29T11:36:00.830Z,20.63
2019-05-29T11:36:49.989Z,20.65
2019-05-29T11:37:50.429Z,20.68
2019-05-29T11:38:50.733Z,20.69
2019-05-29T11:39:52.594Z,20.70
2019-05-29T11:41:03.718Z,20.68
2019-05-29T11:41:52.677Z,20.65
2019-05-29T11:42:52.928Z,20.63
2019-05-29T11:43:54.624Z,20.62
2019-05-29T11:44:55.145Z,20.58
2019-05-29T11:45:03.778Z,20.19
2019-05-29T11:46:02.698Z,20.19
2019-05-29T11:47:04.205Z,20.19
2019-05-29T11:48:05.393Z,20.18
2019-05-29T11:49:04.110Z,20.17
2019-05-29T11:50:18.830Z,20.16
2019-05-29T11:51:04.651Z,20.13
2019-05-29T11:52:23.316Z,20.12
2019-05-29T11:53:05.516Z,20.11
2019-05-29T11:54:06.851Z,20.12
2019-05-29T11:55:08.254Z,20.11
2019-05-29T11:56:07.154Z,20.08
2019-05-29T11:57:08.666Z,20.07
2019-05-29T11:58:09.319Z,20.06
2019-05-29T11:59:08.660Z,20.07
2019-05-29T12:00:19.864Z,20.09
2019-05-29T12:01:10.074Z,20.11
2019-05-29T12:02:12.000Z,20.13
2019-05-29T12:03:12.478Z,20.16
2019-05-29T12:04:25.776Z,20.19
2019-05-29T12:05:12.345Z,20.22
2019-05-29T12:06:14.263Z,20.26
2019-05-29T12:07:13.489Z,20.30
2019-05-29T12:08:15.045Z,20.34
2019-05-29T12:09:31.486Z,20.38
2019-05-29T12:10:15.357Z,20.41
2019-05-29T12:11:15.790Z,20.45
2019-05-29T12:12:17.512Z,20.49
2019-05-29T12:13:17.201Z,20.54
2019-05-29T12:14:17.517Z,20.58
2019-05-29T12:15:18.790Z,20.63
2019-05-29T12:16:18.040Z,20.67
2019-05-29T12:17:18.661Z,20.70
2019-05-29T12:18:23.997Z,20.73
2019-05-29T12:19:19.698Z,20.76
2019-05-29T12:20:28.720Z,20.80
2019-05-29T12:21:19.711Z,20.83
2019-05-29T12:22:19.921Z,20.86
2019-05-29T12:23:26.284Z,20.90
2019-05-29T12:24:21.469Z,20.93
2019-05-29T12:25:21.579Z,20.96
2019-05-29T12:26:23.169Z,21.00
2019-05-29T12:27:22.715Z,21.04
2019-05-29T12:28:23.003Z,21.07
2019-05-29T12:29:23.240Z,21.09
2019-05-29T12:30:23.246Z,21.11
2019-05-29T12:31:23.663Z,21.13
2019-05-29T12:32:23.770Z,21.15
2019-05-29T12:33:24.334Z,21.17
2019-05-29T12:34:24.603Z,21.18
2019-05-29T12:35:24.713Z,21.18
2019-05-29T12:36:24.780Z,21.18
2019-05-29T12:37:26.266Z,21.19
2019-05-29T12:38:25.858Z,21.20
2019-05-29T12:39:26.271Z,21.22
2019-05-29T12:40:26.585Z,21.24
2019-05-29T12:41:27.105Z,21.26
2019-05-29T12:42:27.787Z,21.28
2019-05-29T12:43:29.269Z,21.31
2019-05-29T12:44:28.352Z,21.34
2019-05-29T12:45:28.461Z,21.36
2019-05-29T12:46:28.856Z,21.38
2019-05-29T12:47:29.909Z,21.41
2019-05-29T12:48:30.738Z,21.44
2019-05-29T12:49:31.455Z,21.45
2019-05-29T12:50:34.531Z,21.45
2019-05-29T12:51:33.456Z,21.44